createdAt,value
2023-02-14T00:01:40.857Z,0.45
2023-02-14T00:04:45.849Z,0.39
2023-02-14T00:07:48.421Z,0.38
2023-02-14T00:10:51.413Z,0.35
2023-02-14T00:14:12.621Z,0.34
2023-02-14T00:17:15.626Z,0.33
2023-02-14T00:20:18.384Z,0.29
2023-02-14T00:23:21.640Z,0.26
2023-02-14T00:26:24.163Z,0.26
2023-02-14T00:29:31.632Z,0.30
2023-02-14T00:32:34.814Z,0.32
2023-02-14T00:35:38.696Z,0.32
2023-02-14T00:38:41.178Z,0.15
2023-02-14T00:41:44.931Z,0.12
2023-02-14T00:44:47.469Z,0.26
2023-02-14T00:47:50.263Z,0.29
2023-02-14T00:50:54.169Z,0.33
2023-02-14T00:53:57.065Z,0.36
2023-02-14T00:56:59.856Z,0.41
2023-02-14T01:00:02.894Z,0.44
2023-02-14T01:03:06.995Z,0.44
2023-02-14T01:06:10.350Z,0.40
2023-02-14T01:09:12.933Z,0.33
2023-02-14T01:12:15.821Z,0.26
2023-02-14T01:15:18.351Z,0.23
2023-02-14T01:18:21.334Z,0.18
2023-02-14T01:21:29.868Z,0.16
2023-02-14T01:24:32.834Z,0.13
2023-02-14T01:27:36.099Z,0.11
2023-02-14T01:30:39.081Z,-0.04
2023-02-14T01:33:43.280Z,0.10
2023-02-14T01:36:46.203Z,0.11
2023-02-14T01:39:48.792Z,0.10
2023-02-14T01:42:51.878Z,0.11
2023-02-14T01:45:54.735Z,0.08
2023-02-14T01:49:05.795Z,0.07
2023-02-14T01:52:32.461Z,0.05
2023-02-14T01:55:39.531Z,0.02
2023-02-14T01:58:45.113Z,-0.04
2023-02-14T02:01:50.195Z,-0.08
2023-02-14T02:04:55.341Z,-0.28
2023-02-14T02:08:01.258Z,-0.13
2023-02-14T02:11:04.194Z,-0.17
2023-02-14T02:14:06.827Z,-0.18
2023-02-14T02:17:24.614Z,-0.21
2023-02-14T02:20:39.395Z,-0.25
2023-02-14T02:23:42.287Z,-0.28
2023-02-14T02:27:10.052Z,-0.30
2023-02-14T02:30:28.057Z,-0.33
2023-02-14T02:33:52.541Z,-0.40
2023-02-14T02:37:07.503Z,-0.46
2023-02-14T02:40:16.132Z,-0.50
2023-02-14T02:43:21.662Z,-0.51
2023-02-14T02:46:49.534Z,-0.50
2023-02-14T02:50:17.667Z,-0.51
2023-02-14T02:53:48.169Z,-0.52
2023-02-14T02:56:55.983Z,-0.52
2023-02-14T02:59:59.651Z,-0.52
2023-02-14T03:03:21.366Z,-0.53
2023-02-14T03:06:23.962Z,-0.52
2023-02-14T03:09:26.673Z,-0.49
2023-02-14T03:12:33.659Z,-0.47
2023-02-14T03:15:42.327Z,-0.38
2023-02-14T03:19:10.769Z,-0.29
2023-02-14T03:22:13.549Z,-0.24
2023-02-14T03:25:23.219Z,-0.19
2023-02-14T03:28:51.375Z,-0.17
2023-02-14T03:32:12.730Z,-0.15
2023-02-14T03:35:40.406Z,-0.13
2023-02-14T03:38:59.366Z,-0.13
2023-02-14T03:42:07.914Z,-0.15
2023-02-14T03:45:15.545Z,-0.16
2023-02-14T03:48:19.856Z,-0.20
2023-02-14T03:51:23.327Z,-0.22
2023-02-14T03:54:27.135Z,-0.25
2023-02-14T03:57:35.722Z,-0.28
2023-02-14T04:00:41.251Z,-0.30
2023-02-14T04:03:44.990Z,-0.32
2023-02-14T04:06:47.733Z,-0.33
2023-02-14T04:09:51.328Z,-0.34
2023-02-14T04:12:54.131Z,-0.34
2023-02-14T04:15:57.191Z,-0.38
2023-02-14T04:19:18.548Z,-0.42
2023-02-14T04:22:21.519Z,-0.43
2023-02-14T04:25:24.205Z,-0.47
2023-02-14T04:28:27.101Z,-0.51
2023-02-14T04:31:30.008Z,-0.51
2023-02-14T04:34:33.015Z,-0.54
2023-02-14T04:37:35.767Z,-0.53
2023-02-14T04:40:44.306Z,-0.53
2023-02-14T04:43:46.933Z,-0.50
2023-02-14T04:46:49.982Z,-0.46
2023-02-14T04:49:53.000Z,-0.46
2023-02-14T04:52:56.234Z,-0.41
2023-02-14T04:55:58.905Z,-0.34
2023-02-14T04:59:01.628Z,-0.28
2023-02-14T05:02:04.588Z,-0.21
2023-02-14T05:05:09.111Z,-0.22
2023-02-14T05:08:14.448Z,1.26
2023-02-14T05:11:17.638Z,0.69
2023-02-14T05:14:20.248Z,0.42
2023-02-14T05:17:23.671Z,0.27
2023-02-14T05:20:26.278Z,-0.01
2023-02-14T05:23:29.166Z,0.01
2023-02-14T05:26:31.892Z,-0.07
2023-02-14T05:29:35.187Z,-0.42
2023-02-14T05:32:37.694Z,-0.31
2023-02-14T05:35:40.529Z,-0.38
2023-02-14T05:38:43.659Z,-0.60
2023-02-14T05:41:46.645Z,-0.71
2023-02-14T05:44:49.290Z,-0.67
2023-02-14T05:47:52.268Z,-0.76
2023-02-14T05:50:54.886Z,-0.81
2023-02-14T05:54:00.201Z,-0.88
2023-02-14T05:57:02.782Z,-0.93
2023-02-14T06:00:07.345Z,-0.94
2023-02-14T06:03:14.755Z,-1.01
2023-02-14T06:06:17.563Z,-1.00
2023-02-14T06:09:20.059Z,-1.01
2023-02-14T06:12:23.044Z,-1.03
2023-02-14T06:15:25.884Z,-1.06
2023-02-14T06:18:29.689Z,-1.04
2023-02-14T06:21:32.330Z,0.68
2023-02-14T06:24:35.497Z,0.19
2023-02-14T06:27:38.006Z,-0.14
2023-02-14T06:30:40.989Z,-0.33
2023-02-14T06:33:43.629Z,-0.50
2023-02-14T06:36:46.421Z,-0.58
2023-02-14T06:39:49.153Z,-0.62
2023-02-14T06:42:52.080Z,-0.64
2023-02-14T06:45:54.535Z,-0.67
2023-02-14T06:48:57.552Z,-0.66
2023-02-14T06:52:00.847Z,-0.64
2023-02-14T06:55:03.678Z,-0.62
2023-02-14T06:58:06.136Z,-0.56
2023-02-14T07:01:09.392Z,-0.52
2023-02-14T07:04:12.361Z,-0.43
2023-02-14T07:07:15.267Z,-0.38
2023-02-14T07:10:18.051Z,-0.33
2023-02-14T07:13:20.905Z,-0.27
2023-02-14T07:16:23.428Z,-0.21
2023-02-14T07:19:26.849Z,-0.15
2023-02-14T07:22:30.426Z,-0.05
2023-02-14T07:25:33.460Z,0.04
2023-02-14T07:28:35.960Z,0.15
2023-02-14T07:31:39.086Z,0.23
2023-02-14T07:34:41.699Z,0.33
2023-02-14T07:37:44.585Z,0.45
2023-02-14T07:40:47.125Z,0.57
2023-02-14T07:43:50.799Z,0.68
2023-02-14T07:46:53.290Z,0.79
2023-02-14T07:49:56.062Z,0.94
2023-02-14T07:52:58.601Z,1.03
2023-02-14T07:56:01.539Z,1.21
2023-02-14T07:59:04.425Z,1.40
2023-02-14T08:02:07.668Z,1.51
2023-02-14T08:05:10.825Z,1.65
2023-02-14T08:08:13.388Z,1.85
2023-02-14T08:11:36.345Z,2.00
2023-02-14T08:14:39.003Z,2.09
2023-02-14T08:17:41.773Z,2.27
2023-02-14T08:20:46.055Z,2.46
2023-02-14T08:23:48.930Z,2.60
2023-02-14T08:26:51.512Z,2.77
2023-02-14T08:29:54.472Z,2.94
2023-02-14T08:32:57.124Z,3.16
2023-02-14T08:36:00.427Z,3.19
2023-02-14T08:39:04.582Z,3.52
2023-02-14T08:42:07.388Z,3.75
2023-02-14T08:45:10.209Z,3.97
2023-02-14T08:48:13.244Z,4.16
2023-02-14T08:51:16.753Z,4.40
2023-02-14T08:54:19.599Z,4.62
2023-02-14T08:57:22.182Z,4.67
2023-02-14T09:00:25.340Z,4.84
2023-02-14T09:03:28.017Z,5.16
2023-02-14T09:06:30.845Z,5.47
2023-02-14T09:09:33.475Z,5.74
2023-02-14T09:12:40.293Z,5.85
2023-02-14T09:15:43.620Z,6.13
2023-02-14T09:18:48.124Z,6.29
2023-02-14T09:21:50.901Z,6.58
2023-02-14T09:24:53.750Z,6.75
2023-02-14T09:27:56.382Z,7.00
2023-02-14T09:30:59.738Z,7.21
2023-02-14T09:34:22.092Z,7.33
2023-02-14T09:37:43.564Z,7.35
2023-02-14T09:40:47.025Z,7.70
2023-02-14T09:43:54.581Z,7.99
2023-02-14T09:47:01.829Z,7.99
2023-02-14T09:50:07.385Z,8.23
2023-02-14T09:53:16.614Z,8.37
2023-02-14T09:56:51.320Z,8.13
2023-02-14T10:00:24.519Z,7.95
2023-02-14T10:04:06.384Z,8.26
2023-02-14T10:07:20.882Z,8.61
2023-02-14T10:10:30.907Z,9.29
2023-02-14T10:14:01.882Z,9.52
2023-02-14T10:17:18.232Z,9.65
2023-02-14T10:20:26.743Z,9.99
2023-02-14T10:23:43.904Z,10.24
2023-02-14T10:26:48.648Z,10.43
2023-02-14T10:29:52.201Z,10.40
2023-02-14T10:33:08.282Z,10.54
2023-02-14T10:36:25.089Z,10.91
2023-02-14T10:39:49.540Z,11.22
2023-02-14T10:43:05.303Z,11.20
2023-02-14T10:46:38.877Z,11.32
2023-02-14T10:49:47.212Z,11.73
2023-02-14T10:53:05.538Z,11.87
2023-02-14T10:56:15.759Z,11.64
2023-02-14T10:59:25.379Z,12.31
2023-02-14T11:02:37.933Z,12.56
2023-02-14T11:05:46.778Z,12.85
2023-02-14T11:08:49.710Z,12.90
2023-02-14T11:11:55.360Z,13.10
2023-02-14T11:15:14.949Z,13.23
2023-02-14T11:18:33.089Z,13.32
2023-02-14T11:21:40.817Z,13.44
2023-02-14T11:24:45.422Z,13.86
2023-02-14T11:27:51.079Z,13.70
2023-02-14T11:30:53.911Z,13.80
2023-02-14T11:33:57.881Z,13.54
2023-02-14T11:37:00.989Z,12.68
2023-02-14T11:40:05.307Z,12.46
2023-02-14T11:43:14.425Z,13.02
2023-02-14T11:46:20.712Z,13.24
2023-02-14T11:49:32.131Z,13.35
2023-02-14T11:52:53.247Z,13.70
2023-02-14T11:55:58.432Z,14.18
2023-02-14T11:59:03.824Z,14.50
2023-02-14T12:02:32.863Z,14.34
2023-02-14T12:05:43.698Z,13.18
2023-02-14T12:08:46.923Z,11.99
2023-02-14T12:12:05.059Z,11.33
2023-02-14T12:15:27.086Z,10.76
2023-02-14T12:18:39.317Z,10.96
2023-02-14T12:22:03.943Z,12.13
2023-02-14T12:25:17.523Z,13.06
2023-02-14T12:28:24.989Z,13.92
2023-02-14T12:31:28.060Z,13.91
2023-02-14T12:34:30.614Z,14.19
2023-02-14T12:38:03.894Z,14.71
2023-02-14T12:41:17.138Z,14.65
2023-02-14T12:44:36.466Z,14.91
2023-02-14T12:47:46.828Z,14.65
2023-02-14T12:50:57.664Z,14.49
2023-02-14T12:54:21.861Z,14.81
2023-02-14T12:57:32.011Z,14.68
2023-02-14T13:00:59.440Z,14.91
2023-02-14T13:04:05.252Z,14.97
2023-02-14T13:07:16.698Z,14.44
2023-02-14T13:10:24.679Z,14.53
2023-02-14T13:13:33.294Z,14.51
2023-02-14T13:17:06.278Z,14.55
2023-02-14T13:20:08.747Z,14.21
2023-02-14T13:23:35.618Z,14.26
2023-02-14T13:26:40.615Z,14.33
2023-02-14T13:29:47.219Z,13.56
2023-02-14T13:32:51.283Z,13.18
2023-02-14T13:36:01.029Z,12.80
2023-02-14T13:39:04.233Z,12.58
2023-02-14T13:42:07.655Z,12.50
2023-02-14T13:45:34.995Z,12.23
2023-02-14T13:48:39.209Z,12.17
2023-02-14T13:51:49.822Z,12.04
2023-02-14T13:55:01.803Z,11.81
2023-02-14T13:58:07.088Z,11.44
2023-02-14T14:01:50.260Z,11.10
2023-02-14T14:04:53.142Z,10.86
2023-02-14T14:08:20.594Z,10.60
2023-02-14T14:11:23.425Z,10.46
2023-02-14T14:14:36.271Z,10.37
2023-02-14T14:17:46.112Z,10.16
2023-02-14T14:20:48.925Z,9.80
2023-02-14T14:24:13.802Z,9.70
2023-02-14T14:27:20.434Z,9.61
2023-02-14T14:30:31.269Z,9.43
2023-02-14T14:33:34.906Z,9.47
2023-02-14T14:36:37.875Z,9.50
2023-02-14T14:39:40.436Z,9.32
2023-02-14T14:42:43.412Z,9.24
2023-02-14T14:45:47.296Z,9.02
2023-02-14T14:48:51.976Z,8.91
2023-02-14T14:51:56.468Z,8.75
2023-02-14T14:55:00.096Z,8.67
2023-02-14T14:58:05.084Z,8.51
2023-02-14T15:01:13.262Z,8.44
2023-02-14T15:04:25.462Z,8.40
2023-02-14T15:07:34.916Z,8.31
2023-02-14T15:10:37.613Z,8.17
2023-02-14T15:13:49.898Z,8.09
2023-02-14T15:16:57.634Z,8.05
2023-02-14T15:20:04.410Z,7.92
2023-02-14T15:23:07.868Z,7.88
2023-02-14T15:26:34.073Z,7.75
2023-02-14T15:29:36.727Z,7.70
2023-02-14T15:32:39.630Z,7.57
2023-02-14T15:35:42.575Z,7.51
2023-02-14T15:38:51.214Z,7.40
2023-02-14T15:41:55.579Z,7.27
2023-02-14T15:45:22.515Z,7.13
2023-02-14T15:48:30.687Z,7.04
2023-02-14T15:51:36.356Z,6.80
2023-02-14T15:54:42.854Z,6.84
2023-02-14T15:57:49.786Z,6.66
2023-02-14T16:00:53.191Z,6.50
2023-02-14T16:03:59.894Z,6.29
2023-02-14T16:07:23.983Z,6.08
2023-02-14T16:10:29.894Z,5.86
2023-02-14T16:13:35.247Z,5.66
2023-02-14T16:17:01.633Z,5.58
2023-02-14T16:20:28.029Z,5.45
2023-02-14T16:23:31.566Z,5.42
2023-02-14T16:26:38.180Z,5.35
2023-02-14T16:29:41.588Z,5.31
2023-02-14T16:32:50.172Z,5.21
2023-02-14T16:35:53.366Z,5.16
2023-02-14T16:38:56.872Z,5.21
2023-02-14T16:41:59.842Z,5.14
2023-02-14T16:45:02.394Z,5.11
2023-02-14T16:48:05.745Z,4.89
2023-02-14T16:51:14.107Z,4.88
2023-02-14T16:54:20.658Z,4.70
2023-02-14T16:57:28.698Z,4.71
2023-02-14T17:00:31.791Z,4.39
2023-02-14T17:03:34.616Z,4.43
2023-02-14T17:06:39.749Z,4.44
2023-02-14T17:09:50.289Z,4.31
2023-02-14T17:12:53.421Z,4.45
2023-02-14T17:15:56.768Z,4.43
2023-02-14T17:19:02.337Z,4.46
2023-02-14T17:22:05.008Z,4.43
2023-02-14T17:25:09.048Z,4.37
2023-02-14T17:28:11.654Z,4.26
2023-02-14T17:31:14.841Z,4.09
2023-02-14T17:34:17.464Z,4.04
2023-02-14T17:37:20.845Z,4.06
2023-02-14T17:40:23.707Z,4.06
2023-02-14T17:43:26.969Z,4.00
2023-02-14T17:46:30.900Z,3.93
2023-02-14T17:49:34.211Z,3.89
2023-02-14T17:52:37.923Z,3.81
2023-02-14T17:55:41.071Z,3.81
2023-02-14T17:58:44.293Z,3.81
2023-02-14T18:01:47.903Z,3.72
2023-02-14T18:04:51.157Z,3.64
2023-02-14T18:07:53.974Z,3.50
2023-02-14T18:10:57.167Z,3.57
2023-02-14T18:14:01.826Z,3.68
2023-02-14T18:17:04.845Z,3.62
2023-02-14T18:20:08.084Z,3.56
2023-02-14T18:23:11.257Z,4.08
2023-02-14T18:26:16.798Z,4.51
2023-02-14T18:29:20.570Z,4.24
2023-02-14T18:32:23.855Z,4.06
2023-02-14T18:35:26.775Z,3.84
2023-02-14T18:38:29.754Z,3.66
2023-02-14T18:41:33.205Z,3.55
2023-02-14T18:44:36.318Z,3.43
2023-02-14T18:47:39.152Z,3.40
2023-02-14T18:50:41.965Z,3.34
2023-02-14T18:53:45.792Z,3.68
2023-02-14T18:56:48.601Z,3.90
2023-02-14T18:59:52.004Z,3.81
2023-02-14T19:02:56.898Z,3.74
2023-02-14T19:06:00.372Z,3.66
2023-02-14T19:09:06.973Z,3.59
2023-02-14T19:12:11.842Z,3.56
2023-02-14T19:15:14.626Z,3.52
2023-02-14T19:18:17.797Z,3.48
2023-02-14T19:21:23.677Z,4.44
2023-02-14T19:24:30.002Z,4.05
2023-02-14T19:27:34.037Z,3.83
2023-02-14T19:30:37.673Z,3.01
2023-02-14T19:33:43.020Z,3.43
2023-02-14T19:36:46.481Z,3.30
2023-02-14T19:39:49.477Z,3.26
2023-02-14T19:42:53.339Z,3.24
2023-02-14T19:45:57.198Z,3.19
2023-02-14T19:49:01.520Z,3.01
2023-02-14T19:52:06.254Z,3.11
2023-02-14T19:55:21.811Z,3.06
2023-02-14T19:58:26.074Z,2.93
2023-02-14T20:01:33.777Z,2.75
2023-02-14T20:04:37.137Z,2.64
2023-02-14T20:07:40.039Z,2.59
2023-02-14T20:10:43.513Z,2.50
2023-02-14T20:13:46.382Z,2.39
2023-02-14T20:16:50.466Z,2.38
2023-02-14T20:19:53.633Z,2.44
2023-02-14T20:22:56.831Z,2.44
2023-02-14T20:25:59.838Z,2.44
2023-02-14T20:29:05.400Z,2.41
2023-02-14T20:32:09.491Z,2.35
2023-02-14T20:35:13.543Z,2.24
2023-02-14T20:38:16.794Z,2.18
2023-02-14T20:41:20.562Z,2.15
2023-02-14T20:44:23.813Z,2.15
2023-02-14T20:47:26.956Z,2.20
2023-02-14T20:50:31.121Z,2.30
2023-02-14T20:53:34.242Z,2.42
2023-02-14T20:56:39.267Z,2.47
2023-02-14T20:59:44.844Z,2.47
2023-02-14T21:02:47.723Z,2.50
2023-02-14T21:05:50.803Z,2.47
2023-02-14T21:08:53.681Z,2.40
2023-02-14T21:11:58.380Z,2.39
2023-02-14T21:15:01.368Z,2.37
2023-02-14T21:18:05.251Z,2.36
2023-02-14T21:21:13.013Z,2.27
2023-02-14T21:24:16.449Z,2.20
2023-02-14T21:27:19.395Z,1.93
2023-02-14T21:30:22.876Z,1.99
2023-02-14T21:33:25.763Z,1.74
2023-02-14T21:36:31.296Z,1.83
2023-02-14T21:39:35.804Z,1.79
2023-02-14T21:42:39.467Z,1.68
2023-02-14T21:45:53.412Z,1.62
2023-02-14T21:49:19.227Z,1.57
2023-02-14T21:52:22.175Z,1.51
2023-02-14T21:55:25.363Z,1.45
2023-02-14T21:58:28.574Z,1.40
2023-02-14T22:01:34.627Z,1.38
2023-02-14T22:04:38.131Z,1.35
2023-02-14T22:07:41.102Z,1.31
2023-02-14T22:10:44.007Z,1.29
2023-02-14T22:13:46.924Z,1.28
2023-02-14T22:16:49.911Z,1.23
2023-02-14T22:19:52.744Z,1.20
2023-02-14T22:22:55.644Z,1.18
2023-02-14T22:26:11.154Z,1.20
2023-02-14T22:29:14.022Z,1.18
2023-02-14T22:32:17.630Z,1.25
2023-02-14T22:35:20.615Z,1.29
2023-02-14T22:38:23.654Z,1.31
2023-02-14T22:41:26.694Z,1.26
2023-02-14T22:44:29.232Z,1.23
2023-02-14T22:47:32.444Z,1.18
2023-02-14T22:50:35.644Z,1.03
2023-02-14T22:53:39.251Z,1.11
2023-02-14T22:56:51.540Z,1.07
2023-02-14T22:59:54.460Z,1.02
2023-02-14T23:02:57.174Z,0.99
2023-02-14T23:06:00.752Z,0.95
2023-02-14T23:09:05.717Z,0.95
2023-02-14T23:12:28.674Z,0.92
2023-02-14T23:15:50.351Z,0.90
2023-02-14T23:19:11.806Z,0.87
2023-02-14T23:22:19.454Z,0.86
2023-02-14T23:25:22.243Z,0.96
2023-02-14T23:28:25.241Z,0.84
2023-02-14T23:31:28.194Z,0.98
2023-02-14T23:34:32.558Z,0.94
2023-02-14T23:37:35.456Z,0.92
2023-02-14T23:40:56.848Z,0.90
2023-02-14T23:43:59.857Z,0.89
2023-02-14T23:47:04.588Z,0.85
2023-02-14T23:50:07.985Z,0.77
2023-02-14T23:53:10.566Z,0.72
2023-02-14T23:56:13.530Z,0.73
2023-02-14T23:59:16.530Z,0.64
